Time;durP1;ratioP1;P1;durP2;ratioP2;P2;SDS_P1;SDS_P2;PMS_P1;PMS_P2;Temp;Humidity;BMP_temperature;BMP_pressure;BME280_temperature;BME280_humidity;BME280_pressure;Samples;Min_cycle;Max_cycle;Signal;HPM_P1;HPM_P2
2021/12/20 00:00:40;;;;;;;;;;;;;;;2.82;87.00;99530.60;1710669;82;20601;-83
2021/12/20 00:03:14;;;;;;;;;;;;;;;2.66;87.47;99521.87;1710871;82;20195;-83
2021/12/20 00:05:44;;;;;;;;;;;;;;;2.64;87.24;99527.66;1709026;82;20825;-84
2021/12/20 00:08:11;;;;;;;;;;;;;;;2.67;86.83;99537.84;1705106;82;23177;-82
2021/12/20 00:10:39;;;;;;;;;;;;;;;2.73;86.44;99528.23;1702140;82;20159;-82
2021/12/20 00:13:05;;;;;;;;;;;;;;;2.64;86.45;99530.27;1703295;82;20228;-83
2021/12/20 00:15:31;;;;;;;;;;;;;;;2.75;86.21;99528.97;1698041;82;20173;-83
2021/12/20 00:17:56;;;;;;;;;;;;;;;2.79;85.50;99533.45;1650937;82;20739;-85
2021/12/20 00:20:25;;;;;;;;;;;;;;;2.72;85.56;99531.81;1691437;82;21129;-84
2021/12/20 00:22:52;;;;;;;;;;;;;;;2.73;85.59;99532.14;1708412;82;20127;-84
2021/12/20 00:25:22;;;;;;;;;;;;;;;2.64;85.26;99542.84;1707721;82;20189;-85
2021/12/20 00:27:53;;;;;;;;;;;;;;;2.72;84.92;99529.20;1699664;82;20163;-83
2021/12/20 00:30:21;;;;;;;;;;;;;;;2.78;84.42;99526.11;1703119;82;20546;-86
2021/12/20 00:32:46;;;;;;;;;;;;;;;2.73;84.43;99534.75;1709413;82;20753;-84
2021/12/20 00:35:17;;;;;;;;;;;;;;;2.68;84.72;99521.27;1699598;82;20142;-85
2021/12/20 00:40:37;;;;;;;;;;;;;;;2.63;84.69;99539.88;1679204;84;20139;-84
2021/12/20 00:43:00;;;;;;;;;;;;;;;2.63;84.57;99536.45;1681181;84;20333;-82
2021/12/20 00:45:29;;;;;;;;;;;;;;;2.60;84.64;99539.30;1700178;82;21233;-82
2021/12/20 00:47:58;;;;;;;;;;;;;;;2.60;84.94;99554.93;1659519;85;20092;-84
2021/12/20 00:50:24;;;;;;;;;;;;;;;2.59;85.19;99544.14;1656858;83;20205;-82
2021/12/20 00:52:50;;;;;;;;;;;;;;;2.50;85.24;99547.83;1670899;82;20172;-84
2021/12/20 00:55:18;;;;;;;;;;;;;;;2.63;85.03;99541.66;1701934;82;20244;-83
2021/12/20 00:57:46;;;;;;;;;;;;;;;2.56;84.89;99546.50;1692961;82;20133;-83
2021/12/20 01:00:12;;;;;;;;;;;;;;;2.62;84.53;99539.98;1699412;82;20093;-85
2021/12/20 01:02:38;;;;;;;;;;;;;;;2.74;84.11;99536.42;1705353;82;20251;-87
2021/12/20 01:05:04;;;;;;;;;;;;;;;2.53;84.83;99545.92;1706347;82;20180;-84
2021/12/20 01:07:30;;;;;;;;;;;;;;;2.61;84.54;99535.72;1707086;82;20177;-82
2021/12/20 01:10:02;;;;;;;;;;;;;;;2.54;84.69;99550.20;1708007;82;21115;-82
2021/12/20 01:12:32;;;;;;;;;;;;;;;2.63;84.36;99541.66;1699268;82;20209;-83
2021/12/20 01:15:01;;;;;;;;;;;;;;;2.63;84.39;99528.63;1689656;84;20779;-82
2021/12/20 01:17:27;;;;;;;;;;;;;;;2.46;84.30;99546.88;1699882;82;20786;-83
2021/12/20 01:19:55;;;;;;;;;;;;;;;2.43;84.77;99536.21;1674058;82;20309;-83
2021/12/20 01:22:25;;;;;;;;;;;;;;;2.46;85.04;99538.58;1712835;82;21098;-84
2021/12/20 01:24:53;;;;;;;;;;;;;;;2.43;84.66;99551.84;1714641;82;20908;-85
2021/12/20 01:27:18;;;;;;;;;;;;;;;2.49;84.43;99533.61;1715585;82;20491;-84
2021/12/20 01:29:48;;;;;;;;;;;;;;;2.37;84.43;99532.78;1729614;81;20157;-84
2021/12/20 01:32:16;;;;;;;;;;;;;;;2.49;84.33;99580.04;1670554;84;20183;-84
2021/12/20 01:34:42;;;;;;;;;;;;;;;2.47;84.13;99565.45;1711888;82;20192;-84
2021/12/20 01:37:10;;;;;;;;;;;;;;;2.45;84.46;99543.42;1680739;83;20248;-85
2021/12/20 01:39:37;;;;;;;;;;;;;;;2.45;84.36;99539.52;1687717;83;20166;-86
2021/12/20 01:42:06;;;;;;;;;;;;;;;2.39;84.47;99523.54;1688710;83;20212;-86
2021/12/20 01:44:37;;;;;;;;;;;;;;;2.40;84.28;99544.27;1665251;83;20174;-86
2021/12/20 01:47:07;;;;;;;;;;;;;;;2.45;84.41;99559.06;1690777;83;21343;-86
2021/12/20 01:49:41;;;;;;;;;;;;;;;2.46;84.37;99533.37;1691452;83;20152;-87
2021/12/20 01:52:11;;;;;;;;;;;;;;;2.42;84.25;99534.55;1695099;83;20169;-85
2021/12/20 01:54:38;;;;;;;;;;;;;;;2.44;84.46;99532.67;1695609;82;20207;-88
2021/12/20 01:57:05;;;;;;;;;;;;;;;2.49;84.95;99545.34;1692809;83;20490;-89
2021/12/20 01:59:38;;;;;;;;;;;;;;;2.42;85.19;99540.23;1674796;83;21215;-87
2021/12/20 02:02:07;;;;;;;;;;;;;;;2.43;85.33;99514.55;1693563;83;20383;-86
2021/12/20 02:04:44;;;;;;;;;;;;;;;2.47;85.03;99527.22;1694105;83;20214;-85
2021/12/20 02:07:06;;;;;;;;;;;;;;;2.37;85.47;99533.27;1686934;83;20196;-86
2021/12/20 02:09:33;;;;;;;;;;;;;;;2.28;86.15;99532.19;1698499;82;20188;-85
2021/12/20 02:12:02;;;;;;;;;;;;;;;2.25;86.44;99541.54;1689291;83;22073;-85
2021/12/20 02:14:31;;;;;;;;;;;;;;;2.46;86.07;99557.30;1690011;83;20211;-88
2021/12/20 02:17:00;;;;;;;;;;;;;;;2.44;86.12;99530.06;1693022;83;20525;-85
2021/12/20 02:19:30;;;;;;;;;;;;;;;2.33;85.93;99546.98;1687488;83;20169;-84
2021/12/20 02:21:55;;;;;;;;;;;;;;;2.32;86.27;99535.73;1691769;83;20238;-85
2021/12/20 02:24:24;;;;;;;;;;;;;;;2.23;86.63;99535.14;1692027;83;21108;-84
2021/12/20 02:26:57;;;;;;;;;;;;;;;2.17;87.01;99537.40;1689360;83;20184;-85
2021/12/20 02:29:40;;;;;;;;;;;;;;;2.07;88.03;99527.69;1687639;83;20210;-84
2021/12/20 02:37:29;;;;;;;;;;;;;;;2.09;88.68;99554.42;1696564;83;20199;-83
2021/12/20 02:39:53;;;;;;;;;;;;;;;1.95;89.30;99542.94;1690878;83;20155;-85
2021/12/20 02:42:26;;;;;;;;;;;;;;;2.00;89.01;99528.27;1694911;82;20354;-85
2021/12/20 02:44:53;;;;;;;;;;;;;;;1.93;89.46;99531.81;1684803;83;20501;-83
2021/12/20 02:47:28;;;;;;;;;;;;;;;1.99;89.40;99526.14;1688037;83;20137;-85
2021/12/20 02:49:48;;;;;;;;;;;;;;;1.96;89.46;99551.11;1687563;83;20439;-87
2021/12/20 02:52:17;;;;;;;;;;;;;;;1.91;90.07;99529.78;1687526;83;20203;-85
2021/12/20 02:54:45;;;;;;;;;;;;;;;1.79;90.85;99541.48;1687826;83;20617;-86
2021/12/20 02:57:11;;;;;;;;;;;;;;;1.79;90.96;99524.56;1691317;83;20183;-84
2021/12/20 02:59:41;;;;;;;;;;;;;;;1.67;91.97;99539.80;1663131;83;20506;-85
2021/12/20 03:02:09;;;;;;;;;;;;;;;1.69;93.04;99532.69;1687527;83;21083;-85
2021/12/20 03:04:36;;;;;;;;;;;;;;;1.64;93.15;99519.20;1687456;83;20180;-85
2021/12/20 03:07:04;;;;;;;;;;;;;;;1.67;93.16;99509.86;1690402;83;20206;-84
2021/12/20 03:09:35;;;;;;;;;;;;;;;1.83;92.64;99515.22;1670070;83;20209;-84
2021/12/20 03:12:05;;;;;;;;;;;;;;;1.87;92.21;99520.56;1688703;83;20240;-85
2021/12/20 03:14:37;;;;;;;;;;;;;;;1.77;92.93;99521.25;1670584;85;20159;-85
2021/12/20 03:17:03;;;;;;;;;;;;;;;1.73;93.87;99496.88;1672296;85;20426;-85
2021/12/20 03:19:28;;;;;;;;;;;;;;;1.58;96.26;99523.56;1651748;85;20203;-85
2021/12/20 03:21:54;;;;;;;;;;;;;;;1.53;97.06;99515.28;1671313;85;21107;-85
2021/12/20 03:24:26;;;;;;;;;;;;;;;1.53;97.05;99502.27;1674079;85;20182;-86
2021/12/20 03:26:53;;;;;;;;;;;;;;;1.67;96.63;99496.03;1674437;85;22437;-84
2021/12/20 03:29:21;;;;;;;;;;;;;;;1.71;95.85;99526.92;1671187;85;20142;-84
2021/12/20 03:31:50;;;;;;;;;;;;;;;1.60;95.90;99493.04;1667758;85;20210;-84
2021/12/20 03:34:19;;;;;;;;;;;;;;;1.66;95.26;99510.80;1671846;85;20501;-85
2021/12/20 03:36:45;;;;;;;;;;;;;;;1.67;95.05;99513.77;1677660;84;20135;-85
2021/12/20 03:39:12;;;;;;;;;;;;;;;1.74;94.46;99516.28;1668264;85;21212;-84
2021/12/20 03:41:42;;;;;;;;;;;;;;;1.67;94.96;99507.27;1665726;85;20222;-84
2021/12/20 03:44:08;;;;;;;;;;;;;;;1.67;94.94;99503.84;1673070;85;20170;-85
2021/12/20 03:46:37;;;;;;;;;;;;;;;1.66;95.25;99504.77;1676312;85;20265;-84
2021/12/20 03:49:06;;;;;;;;;;;;;;;1.70;95.12;99504.42;1671958;85;20214;-84
2021/12/20 03:51:39;;;;;;;;;;;;;;;1.70;95.57;99514.84;1667375;85;20438;-83
2021/12/20 03:54:05;;;;;;;;;;;;;;;1.78;96.12;99505.97;1670489;85;20178;-82
2021/12/20 03:56:32;;;;;;;;;;;;;;;1.84;95.31;99501.27;1671309;85;20178;-85
2021/12/20 03:59:01;;;;;;;;;;;;;;;1.99;94.91;99500.11;1655359;85;21275;-83
2021/12/20 04:01:26;;;;;;;;;;;;;;;1.97;94.37;99514.55;1667798;85;20194;-84
2021/12/20 04:04:01;;;;;;;;;;;;;;;1.97;95.01;99492.86;1667597;85;21109;-84
2021/12/20 04:06:27;;;;;;;;;;;;;;;1.89;96.37;99521.27;1676623;85;20182;-84
2021/12/20 04:08:53;;;;;;;;;;;;;;;1.84;97.23;99494.77;1652586;85;20329;-83
2021/12/20 04:11:20;;;;;;;;;;;;;;;1.76;97.01;99495.34;1674127;85;20547;-84
2021/12/20 04:13:47;;;;;;;;;;;;;;;1.92;96.82;99497.60;1681780;83;20243;-83
2021/12/20 04:16:13;;;;;;;;;;;;;;;1.95;96.42;99499.97;1694259;83;21092;-84
2021/12/20 04:18:39;;;;;;;;;;;;;;;1.91;96.23;99503.74;1686064;83;20566;-83
2021/12/20 04:21:05;;;;;;;;;;;;;;;1.95;96.42;99516.41;1688696;82;20206;-84
2021/12/20 04:23:33;;;;;;;;;;;;;;;1.90;97.37;99525.53;1688359;83;20263;-84
2021/12/20 04:26:00;;;;;;;;;;;;;;;1.85;99.52;99492.04;1686347;83;20161;-83
2021/12/20 04:28:28;;;;;;;;;;;;;;;1.86;99.79;99518.89;1693247;83;21168;-83
2021/12/20 04:30:57;;;;;;;;;;;;;;;1.75;100.00;99513.19;1686664;83;20377;-84
2021/12/20 04:33:25;;;;;;;;;;;;;;;1.69;100.00;99501.45;1693652;83;20532;-83
2021/12/20 04:35:51;;;;;;;;;;;;;;;1.74;100.00;99529.30;1693579;82;20361;-83
2021/12/20 04:38:17;;;;;;;;;;;;;;;1.79;100.00;99507.64;1691281;83;20197;-84
2021/12/20 04:40:48;;;;;;;;;;;;;;;1.69;100.00;99507.97;1691205;83;21109;-84
2021/12/20 04:43:13;;;;;;;;;;;;;;;1.78;100.00;99505.16;1690980;83;20633;-84
2021/12/20 04:45:41;;;;;;;;;;;;;;;1.78;100.00;99505.16;1665481;83;20191;-83
2021/12/20 04:48:09;;;;;;;;;;;;;;;1.79;100.00;99510.25;1673921;83;20197;-83
2021/12/20 04:50:36;;;;;;;;;;;;;;;1.82;100.00;99548.70;1686983;83;20164;-86
2021/12/20 04:53:02;;;;;;;;;;;;;;;1.88;100.00;99497.47;1687720;83;20989;-84
2021/12/20 04:55:35;;;;;;;;;;;;;;;1.87;100.00;99502.34;1694402;83;20159;-84
2021/12/20 04:58:01;;;;;;;;;;;;;;;1.86;100.00;99516.29;1695378;83;20183;-84
2021/12/20 05:00:38;;;;;;;;;;;;;;;1.86;100.00;99520.20;1689406;83;20282;-83
2021/12/20 05:03:01;;;;;;;;;;;;;;;1.75;100.00;99507.50;1686327;83;20656;-84
2021/12/20 05:05:28;;;;;;;;;;;;;;;1.86;100.00;99518.89;1668379;83;20909;-84
2021/12/20 05:07:58;;;;;;;;;;;;;;;1.94;100.00;99513.92;1682537;83;20776;-87
2021/12/20 05:10:33;;;;;;;;;;;;;;;1.99;100.00;99510.52;1694181;83;20249;-84
2021/12/20 05:13:02;;;;;;;;;;;;;;;2.20;100.00;99521.53;1689901;83;20179;-87
2021/12/20 05:15:28;;;;;;;;;;;;;;;2.20;100.00;99524.14;1704582;83;20183;-85
2021/12/20 05:17:55;;;;;;;;;;;;;;;2.30;100.00;99532.89;1700534;83;22091;-85
2021/12/20 05:20:24;;;;;;;;;;;;;;;2.28;100.00;99530.88;1703255;82;20230;-83
2021/12/20 05:22:50;;;;;;;;;;;;;;;2.29;100.00;99528.16;1698324;83;20232;-86
2021/12/20 05:25:15;;;;;;;;;;;;;;;2.29;100.00;99536.45;1708057;82;20771;-86
2021/12/20 05:27:43;;;;;;;;;;;;;;;2.26;100.00;99543.20;1707117;83;20130;-86
2021/12/20 05:30:09;;;;;;;;;;;;;;;2.11;100.00;99543.89;1699676;83;21095;-88
2021/12/20 05:32:35;;;;;;;;;;;;;;;2.15;100.00;99551.36;1698867;83;20560;-86
2021/12/20 05:35:03;;;;;;;;;;;;;;;2.18;100.00;99535.16;1701628;83;20192;-85
2021/12/20 05:37:32;;;;;;;;;;;;;;;2.14;100.00;99557.98;1693203;83;20175;-85
2021/12/20 05:40:01;;;;;;;;;;;;;;;2.18;100.00;99554.70;1706399;83;20151;-84
2021/12/20 05:42:32;;;;;;;;;;;;;;;2.31;100.00;99561.91;1692224;83;21112;-84
2021/12/20 05:45:02;;;;;;;;;;;;;;;2.26;100.00;99552.33;1706169;83;20146;-84
2021/12/20 05:47:29;;;;;;;;;;;;;;;2.39;100.00;99558.72;1702892;83;20108;-84
2021/12/20 05:49:56;;;;;;;;;;;;;;;2.40;100.00;99567.72;1705039;83;20257;-84
2021/12/20 05:52:25;;;;;;;;;;;;;;;2.44;100.00;99571.75;1699534;83;20277;-85
2021/12/20 05:54:52;;;;;;;;;;;;;;;2.42;100.00;99569.72;1700411;83;20204;-84
2021/12/20 05:57:18;;;;;;;;;;;;;;;2.47;100.00;99574.13;1694884;83;20554;-84
2021/12/20 05:59:45;;;;;;;;;;;;;;;2.60;100.00;99574.00;1705670;83;20163;-84
2021/12/20 06:02:17;;;;;;;;;;;;;;;2.64;100.00;99582.40;1696190;83;20504;-85
2021/12/20 06:04:50;;;;;;;;;;;;;;;2.55;100.00;99588.32;1680704;83;20984;-84
2021/12/20 06:07:13;;;;;;;;;;;;;;;2.53;100.00;99592.83;1706064;83;20140;-84
2021/12/20 06:09:40;;;;;;;;;;;;;;;2.50;100.00;99586.92;1697300;83;20158;-85
2021/12/20 06:12:08;;;;;;;;;;;;;;;2.60;100.00;99596.64;1700369;83;20170;-86
2021/12/20 06:14:34;;;;;;;;;;;;;;;2.65;100.00;99601.02;1693137;83;20178;-85
2021/12/20 06:17:02;;;;;;;;;;;;;;;2.58;100.00;99608.94;1696051;83;20284;-85
2021/12/20 06:19:31;;;;;;;;;;;;;;;2.63;100.00;99597.70;1691805;83;21260;-86
2021/12/20 06:22:03;;;;;;;;;;;;;;;2.58;100.00;99615.45;1692198;83;20131;-87
2021/12/20 06:24:34;;;;;;;;;;;;;;;2.51;100.00;99627.66;1693357;83;20187;-86
2021/12/20 06:27:03;;;;;;;;;;;;;;;2.46;100.00;99629.79;1694979;83;20545;-87
2021/12/20 06:29:36;;;;;;;;;;;;;;;2.51;100.00;99630.26;1698136;83;20171;-85
2021/12/20 06:32:02;;;;;;;;;;;;;;;2.35;100.00;99646.72;1691407;83;20508;-82
2021/12/20 06:34:32;;;;;;;;;;;;;;;2.38;100.00;99622.19;1690350;83;21103;-83
2021/12/20 06:37:00;;;;;;;;;;;;;;;2.25;100.00;99641.84;1693576;83;20104;-83
2021/12/20 06:39:26;;;;;;;;;;;;;;;2.28;100.00;99625.97;1692722;83;20226;-83
2021/12/20 06:41:52;;;;;;;;;;;;;;;2.19;100.00;99639.69;1662121;83;20353;-84
2021/12/20 06:44:24;;;;;;;;;;;;;;;2.24;100.00;99637.59;1693369;83;21169;-80
2021/12/20 06:46:49;;;;;;;;;;;;;;;2.33;100.00;99644.69;1689035;83;20562;-79
2021/12/20 06:49:17;;;;;;;;;;;;;;;2.29;100.00;99657.12;1695101;83;20593;-81
2021/12/20 06:51:49;;;;;;;;;;;;;;;2.30;100.00;99659.24;1691501;83;20200;-84
2021/12/20 06:54:16;;;;;;;;;;;;;;;2.21;100.00;99669.08;1691114;83;20220;-83
2021/12/20 06:56:43;;;;;;;;;;;;;;;2.18;100.00;99671.91;1692079;83;21331;-86
2021/12/20 06:59:08;;;;;;;;;;;;;;;2.14;100.00;99669.53;1648219;83;20660;-86
2021/12/20 07:01:38;;;;;;;;;;;;;;;2.36;100.00;99664.48;1689039;83;20169;-86
2021/12/20 07:04:07;;;;;;;;;;;;;;;2.15;100.00;99676.87;1686070;83;20211;-82
2021/12/20 07:06:35;;;;;;;;;;;;;;;2.34;100.00;99664.59;1688253;83;20198;-86
2021/12/20 07:09:02;;;;;;;;;;;;;;;2.33;100.00;99663.77;1696904;83;21336;-86
2021/12/20 07:11:29;;;;;;;;;;;;;;;2.38;100.00;99666.03;1690633;83;20280;-84
2021/12/20 07:14:03;;;;;;;;;;;;;;;2.44;100.00;99702.05;1690478;83;20167;-82
2021/12/20 07:16:33;;;;;;;;;;;;;;;2.36;100.00;99671.81;1686228;83;20214;-82
2021/12/20 07:18:59;;;;;;;;;;;;;;;2.40;100.00;99668.52;1697890;83;20137;-83
2021/12/20 07:21:25;;;;;;;;;;;;;;;2.45;100.00;99671.12;1699903;83;22062;-84
2021/12/20 07:23:52;;;;;;;;;;;;;;;2.50;100.00;99687.26;1692053;83;20126;-85
2021/12/20 07:26:20;;;;;;;;;;;;;;;2.41;100.00;99704.04;1691990;83;20204;-83
2021/12/20 07:28:47;;;;;;;;;;;;;;;2.53;100.00;99680.14;1692535;83;20215;-80
2021/12/20 07:31:17;;;;;;;;;;;;;;;2.67;100.00;99678.62;1691890;83;20168;-84
2021/12/20 07:33:46;;;;;;;;;;;;;;;2.60;100.00;99680.05;1671802;83;21214;-86
2021/12/20 07:36:18;;;;;;;;;;;;;;;2.62;100.00;99691.18;1664409;83;20109;-86
2021/12/20 07:38:42;;;;;;;;;;;;;;;2.57;100.00;99686.31;1692860;83;20116;-86
2021/12/20 07:41:08;;;;;;;;;;;;;;;2.60;100.00;99696.51;1692246;83;20171;-87
2021/12/20 07:43:36;;;;;;;;;;;;;;;2.62;99.71;99712.03;1689228;83;21008;-85
2021/12/20 07:46:09;;;;;;;;;;;;;;;2.62;98.24;99693.78;1690398;83;20202;-86
2021/12/20 07:48:36;;;;;;;;;;;;;;;2.62;99.10;99697.70;1689760;83;20249;-87
2021/12/20 07:51:04;;;;;;;;;;;;;;;2.61;98.44;99692.11;1700824;83;20160;-84
2021/12/20 07:53:34;;;;;;;;;;;;;;;2.64;98.63;99703.61;1688224;83;20253;-85
2021/12/20 07:56:00;;;;;;;;;;;;;;;2.53;100.00;99691.88;1676119;83;20231;-85
2021/12/20 07:58:28;;;;;;;;;;;;;;;2.59;99.54;99700.05;1691375;83;21890;-84
2021/12/20 08:00:58;;;;;;;;;;;;;;;2.64;99.34;99702.31;1691671;83;20137;-86
2021/12/20 08:03:23;;;;;;;;;;;;;;;2.65;99.32;99701.38;1689829;83;20222;-82
2021/12/20 08:05:54;;;;;;;;;;;;;;;2.68;99.65;99705.88;1691757;83;20175;-86
2021/12/20 08:08:20;;;;;;;;;;;;;;;2.69;99.50;99707.55;1693927;83;20187;-82
2021/12/20 08:10:47;;;;;;;;;;;;;;;2.71;99.58;99707.91;1663924;83;21729;-84
2021/12/20 08:13:16;;;;;;;;;;;;;;;2.68;99.97;99712.39;1687893;83;20445;-84
2021/12/20 08:15:46;;;;;;;;;;;;;;;2.64;99.50;99717.95;1652631;83;20410;-87
2021/12/20 08:18:15;;;;;;;;;;;;;;;2.82;98.65;99730.08;1670167;83;20197;-86
2021/12/20 08:20:45;;;;;;;;;;;;;;;2.77;99.27;99737.43;1690281;83;20252;-86
2021/12/20 08:23:13;;;;;;;;;;;;;;;2.83;97.35;99724.75;1676264;83;21206;-87
2021/12/20 08:25:43;;;;;;;;;;;;;;;2.73;97.39;99741.20;1682965;83;20250;-87
2021/12/20 08:28:15;;;;;;;;;;;;;;;2.81;97.11;99749.27;1683889;83;20521;-85
2021/12/20 08:30:45;;;;;;;;;;;;;;;2.77;94.18;99752.59;1683686;83;20213;-83
2021/12/20 08:33:13;;;;;;;;;;;;;;;2.71;95.71;99728.77;1681333;83;20183;-86
2021/12/20 08:35:39;;;;;;;;;;;;;;;2.78;95.49;99729.48;1659711;83;21102;-82
2021/12/20 08:38:18;;;;;;;;;;;;;;;2.80;93.00;99740.63;1626809;83;20182;-84
2021/12/20 08:40:51;;;;;;;;;;;;;;;2.70;95.59;99733.13;1688622;83;20146;-85
2021/12/20 08:43:19;;;;;;;;;;;;;;;2.64;98.07;99746.62;1676465;83;20269;-83
2021/12/20 08:45:48;;;;;;;;;;;;;;;2.67;98.56;99746.39;1686604;83;21071;-86
2021/12/20 08:48:16;;;;;;;;;;;;;;;2.57;99.36;99741.53;1682463;83;22545;-86
2021/12/20 08:50:43;;;;;;;;;;;;;;;2.60;100.00;99756.46;1686051;83;20926;-88
2021/12/20 08:53:10;;;;;;;;;;;;;;;2.56;100.00;99751.59;1664776;83;20746;-85
2021/12/20 08:55:37;;;;;;;;;;;;;;;2.56;100.00;99743.77;1681791;83;20238;-85
2021/12/20 08:58:06;;;;;;;;;;;;;;;2.49;100.00;99749.44;1688284;83;20205;-86
2021/12/20 09:00:33;;;;;;;;;;;;;;;2.58;100.00;99761.42;1695052;83;22491;-83
2021/12/20 09:03:01;;;;;;;;;;;;;;;2.51;100.00;99768.88;1649461;83;20542;-85
2021/12/20 09:05:28;;;;;;;;;;;;;;;2.59;100.00;99760.00;1659182;83;20423;-81
2021/12/20 09:07:56;;;;;;;;;;;;;;;2.76;100.00;99768.35;1684952;83;20184;-84
2021/12/20 09:10:21;;;;;;;;;;;;;;;2.76;100.00;99761.34;1668803;83;20139;-82
2021/12/20 09:12:47;;;;;;;;;;;;;;;2.49;100.00;99767.69;1679787;83;21228;-84
2021/12/20 09:15:17;;;;;;;;;;;;;;;2.54;100.00;99766.52;1660606;83;20143;-82
2021/12/20 09:17:48;;;;;;;;;;;;;;;2.49;100.00;99778.11;1679733;83;21023;-84
2021/12/20 09:20:21;;;;;;;;;;;;;;;2.44;100.00;99766.35;1653537;83;20578;-82
2021/12/20 09:22:56;;;;;;;;;;;;;;;2.38;100.00;99791.11;1683454;83;20851;-79
2021/12/20 09:25:25;;;;;;;;;;;;;;;2.12;100.00;99784.70;1673917;83;20674;-85
2021/12/20 09:27:52;;;;;;;;;;;;;;;2.18;100.00;99798.25;1654005;83;20196;-86
2021/12/20 09:30:18;;;;;;;;;;;;;;;2.02;100.00;99812.82;1655787;83;20216;-84
2021/12/20 09:32:52;;;;;;;;;;;;;;;1.85;100.00;99791.89;1680669;83;20629;-86
2021/12/20 09:35:20;;;;;;;;;;;;;;;1.86;100.00;99790.95;1679779;83;20152;-86
2021/12/20 09:37:50;;;;;;;;;;;;;;;2.02;100.00;99797.20;1689681;83;21863;-83
2021/12/20 09:40:20;;;;;;;;;;;;;;;1.75;100.00;99794.32;1684531;83;20479;-83
2021/12/20 09:42:52;;;;;;;;;;;;;;;1.92;100.00;99804.84;1676792;83;20133;-82
2021/12/20 09:45:21;;;;;;;;;;;;;;;2.05;100.00;99808.25;1678928;83;21155;-83
2021/12/20 09:47:48;;;;;;;;;;;;;;;2.09;100.00;99809.67;1648609;83;20184;-82
2021/12/20 09:50:17;;;;;;;;;;;;;;;2.17;100.00;99813.51;1680169;83;22003;-84
2021/12/20 09:52:44;;;;;;;;;;;;;;;2.24;100.00;99810.83;1663221;83;20144;-85
2021/12/20 09:55:11;;;;;;;;;;;;;;;2.25;99.63;99810.72;1689107;83;20160;-80
2021/12/20 09:57:40;;;;;;;;;;;;;;;2.32;99.89;99818.44;1684572;83;20991;-82
2021/12/20 10:00:08;;;;;;;;;;;;;;;2.11;100.00;99814.31;1687518;83;21008;-81
2021/12/20 10:02:36;;;;;;;;;;;;;;;1.99;99.55;99816.50;1655539;83;23113;-81
2021/12/20 10:05:01;;;;;;;;;;;;;;;2.17;99.49;99822.62;1682661;83;20856;-82
2021/12/20 10:07:29;;;;;;;;;;;;;;;2.22;100.00;99828.33;1689737;83;20390;-83
2021/12/20 10:09:56;;;;;;;;;;;;;;;2.12;99.93;99828.98;1681598;83;20200;-80
2021/12/20 10:12:25;;;;;;;;;;;;;;;2.01;100.00;99839.34;1681880;83;20194;-81
2021/12/20 10:15:00;;;;;;;;;;;;;;;1.94;100.00;99840.27;1685873;83;21048;-81
2021/12/20 10:17:30;;;;;;;;;;;;;;;2.09;100.00;99848.73;1690798;83;20183;-80
2021/12/20 10:19:57;;;;;;;;;;;;;;;2.09;100.00;99844.02;1674282;83;20659;-81
2021/12/20 10:22:28;;;;;;;;;;;;;;;1.99;99.46;99846.45;1660140;83;40363;-83
2021/12/20 10:24:57;;;;;;;;;;;;;;;2.10;98.93;99837.39;1690655;83;20208;-81
2021/12/20 10:27:31;;;;;;;;;;;;;;;2.28;98.96;99836.52;1688835;83;21181;-78
2021/12/20 10:29:58;;;;;;;;;;;;;;;2.32;98.08;99833.25;1685849;83;20235;-81
2021/12/20 10:32:41;;;;;;;;;;;;;;;2.36;97.64;99841.18;1679384;83;20198;-80
2021/12/20 10:35:31;;;;;;;;;;;;;;;2.24;96.39;99844.70;1677986;83;20753;-80
2021/12/20 10:38:00;;;;;;;;;;;;;;;2.23;95.13;99834.73;1683032;83;20233;-82
2021/12/20 10:40:25;;;;;;;;;;;;;;;2.24;94.28;99834.28;1682594;83;21052;-79
2021/12/20 10:42:53;;;;;;;;;;;;;;;2.43;94.53;99850.71;1675546;83;20632;-80
2021/12/20 10:45:20;;;;;;;;;;;;;;;2.49;93.50;99850.27;1690113;83;20160;-79
2021/12/20 10:47:46;;;;;;;;;;;;;;;2.53;91.55;99848.25;1684355;83;20317;-78
2021/12/20 10:50:29;;;;;;;;;;;;;;;2.69;91.23;99839.20;1673709;83;20213;-83
2021/12/20 10:53:13;;;;;;;;;;;;;;;2.74;89.33;99842.77;1674739;83;21072;-81
2021/12/20 10:55:48;;;;;;;;;;;;;;;2.78;87.22;99842.91;1677274;83;20223;-82
2021/12/20 10:58:28;;;;;;;;;;;;;;;2.80;86.50;99846.71;1684319;83;20232;-79
2021/12/20 11:01:29;;;;;;;;;;;;;;;2.49;84.02;99848.48;1680231;83;20135;-81
2021/12/20 11:03:56;;;;;;;;;;;;;;;2.64;84.46;99843.94;1684243;83;20140;-80
2021/12/20 11:09:05;;;;;;;;;;;;;;;2.64;79.00;99886.09;1680094;83;20569;-83
2021/12/20 11:11:33;;;;;;;;;;;;;;;2.57;77.41;99899.23;1681186;83;20165;-81
2021/12/20 11:14:00;;;;;;;;;;;;;;;2.37;72.97;99868.91;1684145;83;20248;-82
2021/12/20 11:16:32;;;;;;;;;;;;;;;2.33;72.11;99902.19;1684731;83;20185;-82
2021/12/20 11:19:13;;;;;;;;;;;;;;;2.32;71.63;99865.81;1685703;83;21193;-81
2021/12/20 11:21:59;;;;;;;;;;;;;;;2.40;72.35;99899.96;1681564;83;20161;-82
2021/12/20 11:24:31;;;;;;;;;;;;;;;2.28;71.05;99883.90;1684781;83;20528;-83
2021/12/20 11:26:57;;;;;;;;;;;;;;;2.31;69.84;99881.08;1689089;83;20251;-82
2021/12/20 11:29:23;;;;;;;;;;;;;;;2.24;70.22;99881.17;1684843;82;20223;-83
2021/12/20 11:31:49;;;;;;;;;;;;;;;2.28;68.65;99874.30;1692137;83;21206;-83
2021/12/20 11:34:14;;;;;;;;;;;;;;;2.38;68.82;99904.46;1689520;83;20310;-81
2021/12/20 11:36:40;;;;;;;;;;;;;;;2.33;68.48;99881.79;1692301;83;20140;-80
2021/12/20 11:39:06;;;;;;;;;;;;;;;2.36;67.97;99886.78;1684990;83;20165;-81
2021/12/20 11:41:32;;;;;;;;;;;;;;;2.45;68.18;99889.20;1686177;83;20492;-80
2021/12/20 11:43:58;;;;;;;;;;;;;;;2.23;63.10;99913.36;1685290;82;21143;-82
2021/12/20 11:46:27;;;;;;;;;;;;;;;2.02;62.74;99911.78;1687771;83;21008;-79
2021/12/20 11:48:55;;;;;;;;;;;;;;;1.88;62.68;99891.47;1683075;83;20202;-81
2021/12/20 11:51:20;;;;;;;;;;;;;;;1.89;62.14;99918.33;1685634;83;20207;-81
2021/12/20 11:53:46;;;;;;;;;;;;;;;1.75;62.52;99910.98;1691898;83;20154;-80
2021/12/20 11:56:11;;;;;;;;;;;;;;;1.79;62.06;99930.67;1695561;82;21081;-80
2021/12/20 11:58:40;;;;;;;;;;;;;;;1.92;63.03;99914.20;1693751;83;20801;-84
2021/12/20 12:01:08;;;;;;;;;;;;;;;1.94;63.19;99916.22;1672266;83;20542;-81
2021/12/20 12:03:35;;;;;;;;;;;;;;;1.92;63.15;99940.25;1688312;83;20135;-81
2021/12/20 12:06:03;;;;;;;;;;;;;;;1.77;62.23;99913.48;1688838;83;20531;-83
2021/12/20 12:08:52;;;;;;;;;;;;;;;1.87;62.14;99924.94;1681997;83;21169;-83
2021/12/20 12:11:27;;;;;;;;;;;;;;;1.83;61.66;99938.27;1687869;82;20237;-81
2021/12/20 12:14:05;;;;;;;;;;;;;;;1.76;63.30;99922.25;1686131;83;20207;-83
2021/12/20 12:16:59;;;;;;;;;;;;;;;1.75;62.40;99930.51;1683896;83;20563;-83
2021/12/20 12:19:48;;;;;;;;;;;;;;;1.61;62.51;99941.86;1684562;83;20196;-82
2021/12/20 12:22:32;;;;;;;;;;;;;;;1.72;63.92;99947.64;1680548;83;21369;-82
2021/12/20 12:24:58;;;;;;;;;;;;;;;1.81;64.59;99947.97;1680511;83;20186;-85
2021/12/20 12:27:31;;;;;;;;;;;;;;;1.82;64.40;99954.82;1681708;83;20717;-84
2021/12/20 12:30:15;;;;;;;;;;;;;;;1.76;64.52;99958.22;1684802;83;20204;-86
2021/12/20 12:32:50;;;;;;;;;;;;;;;1.69;64.69;99955.66;1680407;83;20607;-83
2021/12/20 12:35:43;;;;;;;;;;;;;;;1.73;64.73;99966.72;1681213;83;22123;-84
2021/12/20 12:38:15;;;;;;;;;;;;;;;1.84;64.05;99964.69;1629620;87;20205;-84
2021/12/20 12:40:41;;;;;;;;;;;;;;;1.90;64.53;99972.08;1628784;86;20196;-84
2021/12/20 12:43:07;;;;;;;;;;;;;;;1.81;62.99;99979.21;1656480;83;21056;-83
2021/12/20 12:45:51;;;;;;;;;;;;;;;1.86;64.38;99977.13;1685453;83;20191;-80
2021/12/20 12:48:52;;;;;;;;;;;;;;;1.84;63.18;99986.81;1688064;83;21117;-83
2021/12/20 12:51:26;;;;;;;;;;;;;;;1.60;62.23;99997.92;1687621;83;20208;-84
2021/12/20 12:53:53;;;;;;;;;;;;;;;1.83;63.05;99995.55;1685159;83;20277;-82
2021/12/20 12:56:30;;;;;;;;;;;;;;;1.94;62.10;100029.50;1686667;83;20135;-83
2021/12/20 12:59:19;;;;;;;;;;;;;;;1.91;61.79;100014.09;1681867;83;20616;-83
2021/12/20 13:01:58;;;;;;;;;;;;;;;1.59;61.68;100010.59;1680475;83;21213;-81
2021/12/20 13:04:46;;;;;;;;;;;;;;;1.66;62.26;100035.25;1682959;83;20149;-84
2021/12/20 13:07:23;;;;;;;;;;;;;;;1.51;63.38;100029.76;1681319;83;20264;-82
2021/12/20 13:09:50;;;;;;;;;;;;;;;1.09;63.19;100041.58;1680791;83;20333;-83
2021/12/20 13:12:23;;;;;;;;;;;;;;;1.08;63.80;100035.99;1693536;83;20179;-81
2021/12/20 13:15:06;;;;;;;;;;;;;;;1.38;64.72;100033.19;1689973;83;20135;-81